createdAt,value
2023-02-03T00:00:31.949Z,0.73
2023-02-03T00:03:00.198Z,0.73
2023-02-03T00:05:28.635Z,0.72
2023-02-03T00:07:57.060Z,0.72
2023-02-03T00:10:25.720Z,0.71
2023-02-03T00:12:54.367Z,0.70
2023-02-03T00:15:23.426Z,0.70
2023-02-03T00:17:51.853Z,0.70
2023-02-03T00:20:19.920Z,0.70
2023-02-03T00:22:48.197Z,0.71
2023-02-03T00:25:16.219Z,0.71
2023-02-03T00:27:44.647Z,0.71
2023-02-03T00:30:13.033Z,0.72
2023-02-03T00:32:41.393Z,0.73
2023-02-03T00:35:09.359Z,0.73
2023-02-03T00:37:38.370Z,0.72
2023-02-03T00:40:06.630Z,0.72
2023-02-03T00:42:35.931Z,0.73
2023-02-03T00:45:04.196Z,0.73
2023-02-03T00:47:32.415Z,0.73
2023-02-03T00:50:00.734Z,0.73
2023-02-03T00:52:29.581Z,0.73
2023-02-03T00:54:57.629Z,0.72
2023-02-03T00:57:25.743Z,0.69
2023-02-03T00:59:54.925Z,0.68
2023-02-03T01:02:22.963Z,0.68
2023-02-03T01:04:52.161Z,0.68
2023-02-03T01:07:20.351Z,0.67
2023-02-03T01:09:50.195Z,0.67
2023-02-03T01:12:18.283Z,0.66
2023-02-03T01:14:46.507Z,0.65
2023-02-03T01:17:14.556Z,0.65
2023-02-03T01:19:42.751Z,0.64
2023-02-03T01:22:11.026Z,0.63
2023-02-03T01:24:38.998Z,0.62
2023-02-03T01:27:07.418Z,0.62
2023-02-03T01:29:35.843Z,0.61
2023-02-03T01:32:04.631Z,0.62
2023-02-03T01:34:32.954Z,0.63
2023-02-03T01:37:00.972Z,0.64
2023-02-03T01:39:30.218Z,0.66
2023-02-03T01:41:58.908Z,0.66
2023-02-03T01:44:47.839Z,0.65
2023-02-03T01:47:21.507Z,0.64
2023-02-03T01:50:01.580Z,0.64
2023-02-03T01:52:30.166Z,0.64
2023-02-03T01:54:58.891Z,0.66
2023-02-03T01:57:35.104Z,0.66
2023-02-03T02:00:05.034Z,0.66
2023-02-03T02:02:43.146Z,0.65
2023-02-03T02:05:34.455Z,0.64
2023-02-03T02:08:03.483Z,0.65
2023-02-03T02:10:31.691Z,0.67
2023-02-03T02:13:02.355Z,0.68
2023-02-03T02:15:43.677Z,0.68
2023-02-03T02:18:24.210Z,0.66
2023-02-03T02:20:55.358Z,0.67
2023-02-03T02:23:32.668Z,0.68
2023-02-03T02:26:22.481Z,0.67
2023-02-03T02:29:16.529Z,0.66
2023-02-03T02:31:56.602Z,0.67
2023-02-03T02:34:37.454Z,0.69
2023-02-03T02:37:05.604Z,0.70
2023-02-03T02:39:56.263Z,0.69
2023-02-03T02:42:41.743Z,0.68
2023-02-03T02:45:19.946Z,0.67
2023-02-03T02:47:48.894Z,0.67
2023-02-03T02:50:23.601Z,0.68
2023-02-03T02:52:52.216Z,0.69
2023-02-03T02:55:30.790Z,0.72
2023-02-03T02:58:04.066Z,0.75
2023-02-03T03:00:32.485Z,0.79
2023-02-03T03:03:15.947Z,0.83
2023-02-03T03:05:48.497Z,0.87
2023-02-03T03:08:17.060Z,0.90
2023-02-03T03:10:45.056Z,0.92
2023-02-03T03:13:17.517Z,0.95
2023-02-03T03:15:47.302Z,0.98
2023-02-03T03:18:25.662Z,1.00
2023-02-03T03:20:56.077Z,0.99
2023-02-03T03:23:27.897Z,0.97
2023-02-03T03:26:10.759Z,0.95
2023-02-03T03:28:49.973Z,0.93
2023-02-03T03:31:18.718Z,0.90
2023-02-03T03:33:47.149Z,0.86
2023-02-03T03:36:26.023Z,0.83
2023-02-03T03:38:57.208Z,0.80
2023-02-03T03:41:30.170Z,0.77
2023-02-03T03:44:00.320Z,0.73
2023-02-03T03:46:30.328Z,0.69
2023-02-03T03:49:03.435Z,0.67
2023-02-03T03:51:47.117Z,0.67
2023-02-03T03:54:16.683Z,0.67
2023-02-03T03:57:23.766Z,0.67
2023-02-03T03:59:52.158Z,0.65
2023-02-03T04:02:20.604Z,0.63
2023-02-03T04:04:49.533Z,0.63
2023-02-03T04:07:18.375Z,0.62
2023-02-03T04:09:46.590Z,0.62
2023-02-03T04:12:24.279Z,0.62
2023-02-03T04:14:52.979Z,0.62
2023-02-03T04:17:21.494Z,0.63
2023-02-03T04:19:49.482Z,0.63
2023-02-03T04:22:17.427Z,0.63
2023-02-03T04:24:45.390Z,0.63
2023-02-03T04:27:14.174Z,0.65
2023-02-03T04:29:42.145Z,0.65
2023-02-03T04:32:10.347Z,0.63
2023-02-03T04:34:38.830Z,0.61
2023-02-03T04:37:06.935Z,0.59
2023-02-03T04:39:35.934Z,0.58
2023-02-03T04:42:04.076Z,0.55
2023-02-03T04:44:32.953Z,0.52
2023-02-03T04:47:01.112Z,0.52
2023-02-03T04:49:29.809Z,0.52
2023-02-03T04:51:57.812Z,0.51
2023-02-03T04:54:25.920Z,0.51
2023-02-03T04:56:55.475Z,0.50
2023-02-03T04:59:23.732Z,0.47
2023-02-03T05:01:51.730Z,0.46
2023-02-03T05:04:19.765Z,0.47
2023-02-03T05:06:48.871Z,0.47
2023-02-03T05:09:17.267Z,0.47
2023-02-03T05:11:48.085Z,0.47
2023-02-03T05:14:16.528Z,0.47
2023-02-03T05:16:46.319Z,0.46
2023-02-03T05:19:14.809Z,0.47
2023-02-03T05:21:43.098Z,0.47
2023-02-03T05:24:11.711Z,0.47
2023-02-03T05:26:42.187Z,0.46
2023-02-03T05:29:11.979Z,0.46
2023-02-03T05:31:40.724Z,0.47
2023-02-03T05:34:08.990Z,0.46
2023-02-03T05:36:37.174Z,0.44
2023-02-03T05:46:45.078Z,0.46
2023-02-03T05:49:14.392Z,0.47
2023-02-03T05:51:43.042Z,0.48
2023-02-03T05:54:11.607Z,0.49
2023-02-03T05:56:40.754Z,0.50
2023-02-03T05:59:09.000Z,0.50
2023-02-03T06:01:37.826Z,0.51
2023-02-03T08:15:44.835Z,1.05
2023-02-03T08:18:12.040Z,1.82
2023-02-03T08:20:38.734Z,1.90
2023-02-03T08:23:06.915Z,1.98
2023-02-03T08:25:34.511Z,2.05
2023-02-03T08:28:02.907Z,2.08
2023-02-03T08:30:30.540Z,2.09
2023-02-03T08:32:57.957Z,2.11
2023-02-03T08:35:25.356Z,2.17
2023-02-03T08:37:52.239Z,2.28
2023-02-03T08:40:19.133Z,2.40
2023-02-03T08:42:46.936Z,2.49
2023-02-03T08:45:13.594Z,2.52
2023-02-03T08:47:43.727Z,2.55
2023-02-03T08:50:10.839Z,2.62
2023-02-03T08:52:37.532Z,2.69
2023-02-03T08:55:04.735Z,2.77
2023-02-03T08:57:35.430Z,2.88
2023-02-03T09:00:05.947Z,2.97
2023-02-03T09:02:32.763Z,3.05
2023-02-03T09:05:00.042Z,3.13
2023-02-03T09:07:30.914Z,3.21
2023-02-03T09:09:57.899Z,3.25
2023-02-03T09:12:24.766Z,3.29
2023-02-03T09:14:51.512Z,3.37
2023-02-03T09:17:18.236Z,3.47
2023-02-03T09:19:44.975Z,3.57
2023-02-03T09:22:12.861Z,3.62
2023-02-03T09:24:40.030Z,3.67
2023-02-03T09:27:06.795Z,3.74
2023-02-03T09:29:34.052Z,3.84
2023-02-03T09:32:06.421Z,3.93
2023-02-03T09:34:33.292Z,4.00
2023-02-03T09:37:00.751Z,4.06
2023-02-03T09:39:27.446Z,4.13
2023-02-03T09:42:36.492Z,4.24
2023-02-03T09:45:12.202Z,4.31
2023-02-03T09:47:40.652Z,4.30
2023-02-03T09:50:13.263Z,4.24
2023-02-03T09:52:40.387Z,4.15
2023-02-03T09:55:16.536Z,4.04
2023-02-03T09:57:56.346Z,3.96
2023-02-03T10:00:41.527Z,3.91
2023-02-03T10:03:24.684Z,3.86
2023-02-03T10:06:07.894Z,3.86
2023-02-03T10:09:23.894Z,3.89
2023-02-03T10:11:57.359Z,3.86
2023-02-03T10:14:46.244Z,3.81
2023-02-03T10:17:28.631Z,3.74
2023-02-03T10:20:20.981Z,3.65
2023-02-03T10:22:50.350Z,3.53
2023-02-03T10:25:24.349Z,3.45
2023-02-03T10:27:52.878Z,3.39
2023-02-03T10:30:24.838Z,3.35
2023-02-03T10:32:57.090Z,3.33
2023-02-03T10:35:27.988Z,3.36
2023-02-03T10:37:56.991Z,3.38
2023-02-03T10:40:24.268Z,3.42
2023-02-03T10:43:20.936Z,3.48
2023-02-03T10:45:47.698Z,3.52
2023-02-03T10:48:16.374Z,3.52
2023-02-03T10:50:45.907Z,3.51
2023-02-03T10:53:35.741Z,3.47
2023-02-03T10:56:10.928Z,3.41
2023-02-03T10:58:38.435Z,3.40
2023-02-03T11:01:15.901Z,3.42
2023-02-03T11:04:00.203Z,3.45
2023-02-03T11:06:31.322Z,3.50
2023-02-03T11:08:59.893Z,3.56
2023-02-03T11:11:32.436Z,3.58
2023-02-03T11:14:03.663Z,3.60
2023-02-03T11:16:33.618Z,3.62
2023-02-03T11:19:04.038Z,3.65
2023-02-03T11:21:37.039Z,3.73
2023-02-03T11:24:21.885Z,3.84
2023-02-03T11:27:06.170Z,3.92
2023-02-03T11:29:36.126Z,4.01
2023-02-03T11:32:06.471Z,4.06
2023-02-03T11:34:42.309Z,4.06
2023-02-03T11:37:29.149Z,4.01
2023-02-03T11:40:06.138Z,3.92
2023-02-03T11:42:37.633Z,3.85
2023-02-03T11:45:29.134Z,3.84
2023-02-03T11:47:58.844Z,3.79
2023-02-03T11:50:29.040Z,3.75
2023-02-03T11:53:31.805Z,3.71
2023-02-03T11:56:17.787Z,3.70
2023-02-03T11:58:58.114Z,3.71
2023-02-03T12:01:59.385Z,3.70
2023-02-03T12:04:55.936Z,3.70
2023-02-03T12:07:56.928Z,3.72
2023-02-03T12:11:04.451Z,3.71
2023-02-03T12:13:49.773Z,3.66
2023-02-03T12:16:20.893Z,3.62
2023-02-03T12:19:18.982Z,3.53
2023-02-03T12:21:50.841Z,3.47
2023-02-03T12:24:27.006Z,3.42
2023-02-03T12:27:14.055Z,3.38
2023-02-03T12:29:43.421Z,3.31
2023-02-03T12:32:25.724Z,3.22
2023-02-03T12:34:52.527Z,3.16
2023-02-03T12:37:23.548Z,3.08
2023-02-03T12:40:15.498Z,3.01
2023-02-03T12:42:51.565Z,2.93
2023-02-03T12:45:26.197Z,2.87
2023-02-03T12:48:00.670Z,2.77
2023-02-03T12:50:40.247Z,2.70
2023-02-03T12:53:14.318Z,2.65
2023-02-03T12:55:55.361Z,2.54
2023-02-03T12:58:25.399Z,2.40
2023-02-03T13:01:06.402Z,2.27
2023-02-03T13:03:35.555Z,2.17
2023-02-03T13:06:15.427Z,2.11
2023-02-03T13:08:45.456Z,2.06
2023-02-03T13:11:34.527Z,2.00
2023-02-03T13:14:05.307Z,1.93
2023-02-03T13:16:34.805Z,1.88
2023-02-03T13:19:22.493Z,1.84
2023-02-03T13:21:49.538Z,1.78
2023-02-03T13:24:16.693Z,1.74
2023-02-03T13:27:08.658Z,1.73
2023-02-03T13:29:49.333Z,1.70
2023-02-03T13:32:23.506Z,1.66
2023-02-03T13:34:53.858Z,1.63
2023-02-03T13:37:33.040Z,1.60
2023-02-03T13:40:02.833Z,1.56
2023-02-03T13:42:33.086Z,1.53
2023-02-03T13:45:11.225Z,1.51
2023-02-03T13:47:38.283Z,1.49
2023-02-03T13:50:08.196Z,1.47
2023-02-03T13:52:38.844Z,1.42
2023-02-03T13:55:05.636Z,1.34
2023-02-03T13:57:40.596Z,1.24
2023-02-03T14:00:42.882Z,1.16
2023-02-03T14:03:39.587Z,1.14
2023-02-03T14:06:30.055Z,1.12
2023-02-03T14:09:00.430Z,1.10
2023-02-03T14:11:37.399Z,1.11
2023-02-03T14:14:07.446Z,1.10
2023-02-03T14:16:40.833Z,1.11
2023-02-03T14:19:11.679Z,1.11
2023-02-03T14:21:54.739Z,1.11
2023-02-03T14:24:21.571Z,1.10
2023-02-03T14:26:52.253Z,1.08
2023-02-03T14:29:29.443Z,1.07
2023-02-03T14:32:05.891Z,1.03
2023-02-03T14:34:38.610Z,1.00
2023-02-03T14:37:23.664Z,0.99
2023-02-03T14:40:13.665Z,0.95
2023-02-03T14:43:10.237Z,0.90
2023-02-03T14:45:57.427Z,0.88
2023-02-03T14:48:28.560Z,0.87
2023-02-03T14:51:17.696Z,0.87
2023-02-03T14:53:46.259Z,0.87
2023-02-03T14:56:22.349Z,0.87
2023-02-03T14:59:00.769Z,0.84
2023-02-03T15:01:36.971Z,0.82
2023-02-03T15:04:14.877Z,0.80
2023-02-03T15:06:43.400Z,0.79
2023-02-03T15:09:39.870Z,0.76
2023-02-03T15:12:34.547Z,0.73
2023-02-03T15:15:14.951Z,0.72
2023-02-03T15:17:42.099Z,0.73
2023-02-03T15:20:38.199Z,0.73
2023-02-03T15:23:23.701Z,0.73
2023-02-03T15:25:54.777Z,0.72
2023-02-03T15:28:22.166Z,0.72
2023-02-03T15:30:52.102Z,0.73
2023-02-03T15:33:21.492Z,0.73
2023-02-03T15:36:01.226Z,0.73
2023-02-03T15:38:49.599Z,0.72
2023-02-03T15:41:25.702Z,0.72
2023-02-03T15:43:56.063Z,0.72
2023-02-03T15:46:27.250Z,0.73
2023-02-03T15:49:17.750Z,0.72
2023-02-03T15:51:53.684Z,0.69
2023-02-03T15:54:29.846Z,0.67
2023-02-03T15:57:01.786Z,0.67
2023-02-03T15:59:34.303Z,0.65
2023-02-03T16:02:06.287Z,0.65
2023-02-03T16:04:33.303Z,0.63
2023-02-03T16:06:59.985Z,0.60
2023-02-03T16:09:29.194Z,0.57
2023-02-03T16:12:05.709Z,0.54
2023-02-03T16:14:34.733Z,0.53
2023-02-03T16:17:05.870Z,0.52
2023-02-03T16:19:37.449Z,0.54
2023-02-03T16:22:04.106Z,0.55
2023-02-03T16:24:45.613Z,0.57
2023-02-03T16:27:30.736Z,0.57
2023-02-03T16:30:25.735Z,0.55
2023-02-03T16:33:27.424Z,0.53
2023-02-03T16:36:14.206Z,0.52
2023-02-03T16:39:05.792Z,0.51
2023-02-03T16:41:52.202Z,0.51
2023-02-03T16:44:37.597Z,0.51
2023-02-03T16:47:45.827Z,0.50
2023-02-03T16:50:49.837Z,0.50
2023-02-03T16:53:28.527Z,0.49
2023-02-03T16:55:58.980Z,0.49
2023-02-03T16:58:25.991Z,0.50
2023-02-03T17:00:55.463Z,0.49
2023-02-03T17:03:23.826Z,0.48
2023-02-03T17:05:51.230Z,0.48
2023-02-03T17:08:19.650Z,0.47
2023-02-03T17:10:47.532Z,0.45
2023-02-03T17:13:15.198Z,0.41
2023-02-03T17:15:43.586Z,0.37
2023-02-03T17:18:11.183Z,0.31
2023-02-03T17:20:39.504Z,0.25
2023-02-03T17:23:06.908Z,0.20
2023-02-03T17:25:45.398Z,0.17
2023-02-03T17:28:14.363Z,0.15
2023-02-03T17:30:43.686Z,0.10
2023-02-03T17:33:12.967Z,0.04
2023-02-03T17:35:41.049Z,-0.01
2023-02-03T17:38:09.064Z,-0.05
2023-02-03T17:54:38.956Z,-0.31
2023-02-03T17:57:05.575Z,-0.35
2023-02-03T17:59:34.430Z,-0.38
2023-02-03T18:02:01.316Z,-0.43
2023-02-03T18:04:29.829Z,-0.45
2023-02-03T18:06:58.744Z,-0.48
2023-02-03T18:09:26.818Z,-0.52
2023-02-03T18:11:54.403Z,-0.54
2023-02-03T18:14:21.304Z,-0.58
2023-02-03T18:16:48.731Z,-0.61
2023-02-03T18:19:16.654Z,-0.63
2023-02-03T18:21:44.498Z,-0.66
2023-02-03T18:24:12.435Z,-0.68
2023-02-03T18:26:50.359Z,-0.69
2023-02-03T18:29:17.636Z,-0.70
2023-02-03T18:31:45.004Z,-0.72
2023-02-03T18:34:12.349Z,-0.72
2023-02-03T18:39:07.584Z,-0.76
2023-02-03T18:41:36.187Z,-0.77
2023-02-03T18:44:03.030Z,-0.78
2023-02-03T18:46:30.801Z,-0.78
2023-02-03T18:48:58.003Z,-0.79
2023-02-03T18:51:25.418Z,-0.81
2023-02-03T18:53:56.462Z,-0.83
2023-02-03T18:56:25.196Z,-0.83
2023-02-03T18:58:52.194Z,-0.83
2023-02-03T19:01:22.346Z,-0.84
2023-02-03T19:03:52.022Z,-0.86
2023-02-03T19:06:18.931Z,-0.90
2023-02-03T19:08:45.683Z,-0.93
2023-02-03T19:11:14.588Z,-0.95
2023-02-03T19:13:42.366Z,-0.97
2023-02-03T19:16:11.169Z,-1.01
2023-02-03T19:18:38.671Z,-1.05
2023-02-03T19:21:05.550Z,-1.07
2023-02-03T19:23:32.918Z,-1.10
2023-02-03T19:26:00.240Z,-1.15
2023-02-03T19:28:30.898Z,-1.20
2023-02-03T19:31:07.876Z,-1.25
2023-02-03T19:33:36.373Z,-1.28
2023-02-03T19:36:04.711Z,-1.32
2023-02-03T19:38:32.301Z,-1.34
2023-02-03T19:41:01.143Z,-1.36
2023-02-03T19:43:31.957Z,-1.39
2023-02-03T19:45:59.027Z,-1.40
2023-02-03T19:48:26.675Z,-1.41
2023-02-03T19:50:54.068Z,-1.43
2023-02-03T19:53:23.570Z,-1.45
2023-02-03T19:55:50.647Z,-1.47
2023-02-03T19:58:17.461Z,-1.48
2023-02-03T20:00:44.500Z,-1.47
2023-02-03T20:03:11.793Z,-1.47
2023-02-03T20:05:38.687Z,-1.50
2023-02-03T20:08:05.952Z,-1.53
2023-02-03T20:10:33.256Z,-1.55
2023-02-03T20:13:00.603Z,-1.57
2023-02-03T20:15:27.393Z,-1.58
2023-02-03T20:17:54.745Z,-1.60
2023-02-03T20:20:21.662Z,-1.62
2023-02-03T20:22:48.452Z,-1.63
2023-02-03T20:25:16.223Z,-1.63
2023-02-03T20:27:43.182Z,-1.64
2023-02-03T20:30:11.041Z,-1.65
2023-02-03T20:32:37.855Z,-1.65
2023-02-03T20:35:06.002Z,-1.65
2023-02-03T20:37:35.623Z,-1.65
2023-02-03T20:40:05.805Z,-1.67
2023-02-03T20:42:32.698Z,-1.69
2023-02-03T20:45:00.083Z,-1.71
2023-02-03T20:47:27.316Z,-1.72
2023-02-03T20:49:55.223Z,-1.73
2023-02-03T20:52:21.992Z,-1.74
2023-02-03T20:54:49.026Z,-1.76
2023-02-03T20:57:17.560Z,-1.78
2023-02-03T20:59:45.299Z,-1.79
2023-02-03T21:02:50.653Z,-1.81
2023-02-03T21:05:25.607Z,-1.82
2023-02-03T21:07:55.610Z,-1.84
2023-02-03T21:10:23.204Z,-1.87
2023-02-03T21:12:50.817Z,-1.89
2023-02-03T21:15:28.785Z,-1.90
2023-02-03T21:17:55.914Z,-1.90
2023-02-03T21:20:30.588Z,-1.91
2023-02-03T21:23:02.212Z,-1.92
2023-02-03T21:25:33.032Z,-1.93
2023-02-03T21:28:00.601Z,-1.95
2023-02-03T21:30:33.710Z,-1.97
2023-02-03T21:33:13.242Z,-1.98
2023-02-03T21:35:39.977Z,-1.98
2023-02-03T21:38:28.796Z,-1.99
2023-02-03T21:40:56.361Z,-2.01
2023-02-03T21:43:24.150Z,-2.01
2023-02-03T21:45:50.878Z,-2.05
2023-02-03T21:48:51.172Z,-2.07
2023-02-03T21:51:20.281Z,-2.07
2023-02-03T21:53:56.664Z,-2.09
2023-02-03T21:56:42.390Z,-2.13
2023-02-03T21:59:25.611Z,-2.15
2023-02-03T22:01:53.155Z,-2.16
2023-02-03T22:04:19.859Z,-2.17
2023-02-03T22:06:49.854Z,-2.19
2023-02-03T22:09:17.822Z,-2.20
2023-02-03T22:12:04.893Z,-2.22
2023-02-03T22:14:34.027Z,-2.24
2023-02-03T22:17:01.766Z,-2.27
2023-02-03T22:19:31.667Z,-2.29
2023-02-03T22:21:58.578Z,-2.31
2023-02-03T22:24:25.250Z,-2.32
2023-02-03T22:26:54.294Z,-2.34
2023-02-03T22:29:22.491Z,-2.37
2023-02-03T22:31:49.586Z,-2.40
2023-02-03T22:34:18.411Z,-2.41
2023-02-03T22:36:45.003Z,-2.43
2023-02-03T22:39:12.777Z,-2.44
2023-02-03T22:41:39.612Z,-2.47
2023-02-03T22:44:06.320Z,-2.50
2023-02-03T22:46:32.979Z,-2.55
2023-02-03T22:48:59.698Z,-2.59
2023-02-03T22:51:26.477Z,-2.63
2023-02-03T22:53:53.326Z,-2.68
2023-02-03T22:56:21.191Z,-2.74
2023-02-03T22:58:48.957Z,-2.78
2023-02-03T23:01:15.826Z,-2.80
2023-02-03T23:03:42.569Z,-2.83
2023-02-03T23:06:09.636Z,-2.87
2023-02-03T23:08:36.594Z,-2.89
2023-02-03T23:11:03.405Z,-2.91
2023-02-03T23:13:32.921Z,-2.91
2023-02-03T23:16:00.297Z,-2.93
2023-02-03T23:18:27.474Z,-2.99
2023-02-03T23:20:54.918Z,-3.07
2023-02-03T23:23:21.976Z,-3.14
2023-02-03T23:25:49.160Z,-3.25
2023-02-03T23:28:16.032Z,-3.35
2023-02-03T23:30:43.058Z,-3.43
2023-02-03T23:33:10.128Z,-3.50
2023-02-03T23:35:48.484Z,-3.58
2023-02-03T23:38:15.892Z,-3.65
2023-02-03T23:40:43.401Z,-3.63
2023-02-03T23:43:10.421Z,-3.56
2023-02-03T23:45:37.480Z,-3.50
2023-02-03T23:48:04.734Z,-3.46
2023-02-03T23:50:31.965Z,-3.42
2023-02-03T23:52:59.176Z,-3.38
2023-02-03T23:55:26.057Z,-3.33
2023-02-03T23:57:53.245Z,-3.28
